sensor_id;sensor_type;location;lat;lon;timestamp;pressure;altitude;pressure_sealevel;temperature
19102;BMP280;9683;49.028;12.064;2023-01-04T00:00:41;98549.06;;;6.86
19102;BMP280;9683;49.028;12.064;2023-01-04T00:03:07;98546.44;;;6.86
19102;BMP280;9683;49.028;12.064;2023-01-04T00:05:34;98537.81;;;6.84
19102;BMP280;9683;49.028;12.064;2023-01-04T00:08:01;98543.59;;;6.79
19102;BMP280;9683;49.028;12.064;2023-01-04T00:10:27;98546.59;;;6.76
19102;BMP280;9683;49.028;12.064;2023-01-04T00:12:54;98537.97;;;6.74
19102;BMP280;9683;49.028;12.064;2023-01-04T00:15:22;98537.16;;;6.74
19102;BMP280;9683;49.028;12.064;2023-01-04T00:17:48;98539.31;;;6.70
19102;BMP280;9683;49.028;12.064;2023-01-04T00:20:15;98541.13;;;6.70
19102;BMP280;9683;49.028;12.064;2023-01-04T00:22:41;98540.13;;;6.71
19102;BMP280;9683;49.028;12.064;2023-01-04T00:25:08;98525.09;;;6.71
19102;BMP280;9683;49.028;12.064;2023-01-04T00:27:35;98525.78;;;6.73
19102;BMP280;9683;49.028;12.064;2023-01-04T00:30:01;98528.06;;;6.76
19102;BMP280;9683;49.028;12.064;2023-01-04T00:32:30;98538.16;;;6.81
19102;BMP280;9683;49.028;12.064;2023-01-04T00:34:56;98536.16;;;6.83
19102;BMP280;9683;49.028;12.064;2023-01-04T00:37:23;98535.84;;;6.86
19102;BMP280;9683;49.028;12.064;2023-01-04T00:39:50;98527.56;;;6.89
19102;BMP280;9683;49.028;12.064;2023-01-04T00:42:16;98525.56;;;6.91
19102;BMP280;9683;49.028;12.064;2023-01-04T00:44:43;98518.97;;;6.87
19102;BMP280;9683;49.028;12.064;2023-01-04T00:47:09;98514.03;;;6.84
19102;BMP280;9683;49.028;12.064;2023-01-04T00:49:37;98509.72;;;6.83
19102;BMP280;9683;49.028;12.064;2023-01-04T00:52:04;98504.59;;;6.81
19102;BMP280;9683;49.028;12.064;2023-01-04T00:54:31;98502.94;;;6.80
19102;BMP280;9683;49.028;12.064;2023-01-04T00:56:57;98501.13;;;6.81
19102;BMP280;9683;49.028;12.064;2023-01-04T00:59:25;98492.88;;;6.76
19102;BMP280;9683;49.028;12.064;2023-01-04T01:01:53;98500.81;;;6.76
19102;BMP280;9683;49.028;12.064;2023-01-04T01:04:22;98506.75;;;6.78
19102;BMP280;9683;49.028;12.064;2023-01-04T01:06:50;98509.38;;;6.78
19102;BMP280;9683;49.028;12.064;2023-01-04T01:09:18;98510.22;;;6.78
19102;BMP280;9683;49.028;12.064;2023-01-04T01:11:47;98515.00;;;6.75
19102;BMP280;9683;49.028;12.064;2023-01-04T01:14:16;98520.97;;;6.69
19102;BMP280;9683;49.028;12.064;2023-01-04T01:16:43;98523.94;;;6.66
19102;BMP280;9683;49.028;12.064;2023-01-04T01:19:09;98516.00;;;6.66
19102;BMP280;9683;49.028;12.064;2023-01-04T01:21:37;98527.91;;;6.70
19102;BMP280;9683;49.028;12.064;2023-01-04T01:24:05;98531.56;;;6.69
19102;BMP280;9683;49.028;12.064;2023-01-04T01:26:32;98532.34;;;6.69
19102;BMP280;9683;49.028;12.064;2023-01-04T01:28:59;98531.38;;;6.70
19102;BMP280;9683;49.028;12.064;2023-01-04T01:31:27;98531.56;;;6.69
19102;BMP280;9683;49.028;12.064;2023-01-04T01:33:55;98526.91;;;6.63
19102;BMP280;9683;49.028;12.064;2023-01-04T01:36:23;98528.41;;;6.57
19102;BMP280;9683;49.028;12.064;2023-01-04T01:38:50;98521.63;;;6.55
19102;BMP280;9683;49.028;12.064;2023-01-04T01:41:20;98523.78;;;6.51
19102;BMP280;9683;49.028;12.064;2023-01-04T01:43:53;98517.66;;;6.51
19102;BMP280;9683;49.028;12.064;2023-01-04T01:46:23;98515.84;;;6.51
19102;BMP280;9683;49.028;12.064;2023-01-04T01:48:52;98508.91;;;6.50
19102;BMP280;9683;49.028;12.064;2023-01-04T01:51:20;98510.56;;;6.51
19102;BMP280;9683;49.028;12.064;2023-01-04T01:53:51;98508.56;;;6.53
19102;BMP280;9683;49.028;12.064;2023-01-04T01:56:21;98502.63;;;6.51
19102;BMP280;9683;49.028;12.064;2023-01-04T01:58:51;98501.13;;;6.49
19102;BMP280;9683;49.028;12.064;2023-01-04T02:01:18;98501.81;;;6.51
19102;BMP280;9683;49.028;12.064;2023-01-04T02:03:45;98502.44;;;6.53
19102;BMP280;9683;49.028;12.064;2023-01-04T02:06:13;98487.91;;;6.57
19102;BMP280;9683;49.028;12.064;2023-01-04T02:08:43;98486.09;;;6.57
19102;BMP280;9683;49.028;12.064;2023-01-04T02:11:10;98489.91;;;6.55
19102;BMP280;9683;49.028;12.064;2023-01-04T02:13:39;98484.63;;;6.55
19102;BMP280;9683;49.028;12.064;2023-01-04T02:16:31;98487.59;;;6.52
19102;BMP280;9683;49.028;12.064;2023-01-04T02:19:05;98488.09;;;6.47
19102;BMP280;9683;49.028;12.064;2023-01-04T02:21:48;98494.53;;;6.44
19102;BMP280;9683;49.028;12.064;2023-01-04T02:24:35;98494.53;;;6.44
19102;BMP280;9683;49.028;12.064;2023-01-04T02:27:40;98476.53;;;6.40
19102;BMP280;9683;49.028;12.064;2023-01-04T02:33:15;98473.22;;;6.38
19102;BMP280;9683;49.028;12.064;2023-01-04T02:35:50;98467.78;;;6.39
19102;BMP280;9683;49.028;12.064;2023-01-04T02:38:23;98460.50;;;6.41
19102;BMP280;9683;49.028;12.064;2023-01-04T02:40:56;98461.34;;;6.42
19102;BMP280;9683;49.028;12.064;2023-01-04T02:43:30;98453.41;;;6.42
19102;BMP280;9683;49.028;12.064;2023-01-04T02:46:22;98453.56;;;6.40
19102;BMP280;9683;49.028;12.064;2023-01-04T02:48:52;98442.84;;;6.34
19102;BMP280;9683;49.028;12.064;2023-01-04T02:51:37;98447.44;;;6.24
19102;BMP280;9683;49.028;12.064;2023-01-04T02:54:06;98450.09;;;6.24
19102;BMP280;9683;49.028;12.064;2023-01-04T02:56:45;98446.81;;;6.22
19102;BMP280;9683;49.028;12.064;2023-01-04T02:59:26;98453.06;;;6.21
19102;BMP280;9683;49.028;12.064;2023-01-04T03:02:02;98445.16;;;6.21
19102;BMP280;9683;49.028;12.064;2023-01-04T03:05:01;98448.63;;;6.21
19102;BMP280;9683;49.028;12.064;2023-01-04T03:07:51;98436.41;;;6.20
19102;BMP280;9683;49.028;12.064;2023-01-04T03:10:27;98440.19;;;6.18
19102;BMP280;9683;49.028;12.064;2023-01-04T03:13:00;98436.25;;;6.14
19102;BMP280;9683;49.028;12.064;2023-01-04T03:15:33;98442.66;;;6.11
19102;BMP280;9683;49.028;12.064;2023-01-04T03:18:07;98448.28;;;6.08
19102;BMP280;9683;49.028;12.064;2023-01-04T03:20:36;98457.53;;;6.04
19102;BMP280;9683;49.028;12.064;2023-01-04T03:23:05;98456.19;;;6.00
19102;BMP280;9683;49.028;12.064;2023-01-04T03:25:55;98449.94;;;5.93
19102;BMP280;9683;49.028;12.064;2023-01-04T03:28:40;98443.47;;;5.87
19102;BMP280;9683;49.028;12.064;2023-01-04T03:31:29;98440.31;;;5.84
19102;BMP280;9683;49.028;12.064;2023-01-04T03:34:16;98437.97;;;5.81
19102;BMP280;9683;49.028;12.064;2023-01-04T03:37:09;98429.53;;;5.77
19102;BMP280;9683;49.028;12.064;2023-01-04T03:40:16;98426.91;;;5.69
19102;BMP280;9683;49.028;12.064;2023-01-04T03:43:06;98430.19;;;5.63
19102;BMP280;9683;49.028;12.064;2023-01-04T03:45:55;98431.19;;;5.62
19102;BMP280;9683;49.028;12.064;2023-01-04T03:48:44;98422.09;;;5.57
19102;BMP280;9683;49.028;12.064;2023-01-04T03:51:14;98423.03;;;5.47
19102;BMP280;9683;49.028;12.064;2023-01-04T03:53:52;98422.25;;;5.47
19102;BMP280;9683;49.028;12.064;2023-01-04T03:56:21;98418.44;;;5.41
19102;BMP280;9683;49.028;12.064;2023-01-04T03:58:49;98421.53;;;5.37
19102;BMP280;9683;49.028;12.064;2023-01-04T04:01:17;98425.16;;;5.36
19102;BMP280;9683;49.028;12.064;2023-01-04T04:03:44;98414.47;;;5.37
19102;BMP280;9683;49.028;12.064;2023-01-04T04:06:28;98410.16;;;5.36
19102;BMP280;9683;49.028;12.064;2023-01-04T04:09:14;98416.59;;;5.34
19102;BMP280;9683;49.028;12.064;2023-01-04T04:11:40;98407.84;;;5.25
19102;BMP280;9683;49.028;12.064;2023-01-04T04:14:07;98406.31;;;5.23
19102;BMP280;9683;49.028;12.064;2023-01-04T04:16:33;98402.34;;;5.19
19102;BMP280;9683;49.028;12.064;2023-01-04T04:19:00;98397.16;;;5.01
19102;BMP280;9683;49.028;12.064;2023-01-04T04:21:27;98390.22;;;4.92
19102;BMP280;9683;49.028;12.064;2023-01-04T04:23:53;98397.47;;;4.90
19102;BMP280;9683;49.028;12.064;2023-01-04T04:26:22;98385.78;;;4.92
19102;BMP280;9683;49.028;12.064;2023-01-04T04:28:49;98387.75;;;4.90
19102;BMP280;9683;49.028;12.064;2023-01-04T04:31:16;98385.25;;;4.89
19102;BMP280;9683;49.028;12.064;2023-01-04T04:33:42;98384.75;;;4.85
19102;BMP280;9683;49.028;12.064;2023-01-04T04:36:09;98381.25;;;4.77
19102;BMP280;9683;49.028;12.064;2023-01-04T04:38:37;98384.84;;;4.76
19102;BMP280;9683;49.028;12.064;2023-01-04T04:41:07;98381.94;;;4.79
19102;BMP280;9683;49.028;12.064;2023-01-04T04:43:54;98380.94;;;4.80
19102;BMP280;9683;49.028;12.064;2023-01-04T04:46:20;98385.56;;;4.86
19102;BMP280;9683;49.028;12.064;2023-01-04T04:48:47;98383.31;;;4.91
19102;BMP280;9683;49.028;12.064;2023-01-04T04:51:14;98382.31;;;4.92
19102;BMP280;9683;49.028;12.064;2023-01-04T04:53:40;98371.94;;;4.90
19102;BMP280;9683;49.028;12.064;2023-01-04T04:56:07;98381.31;;;4.93
19102;BMP280;9683;49.028;12.064;2023-01-04T04:58:34;98383.44;;;4.89
19102;BMP280;9683;49.028;12.064;2023-01-04T05:01:02;98382.31;;;4.92
19102;BMP280;9683;49.028;12.064;2023-01-04T05:03:29;98376.69;;;4.87
19102;BMP280;9683;49.028;12.064;2023-01-04T05:05:56;98380.13;;;4.79
19102;BMP280;9683;49.028;12.064;2023-01-04T05:08:22;98371.91;;;4.82
19102;BMP280;9683;49.028;12.064;2023-01-04T05:10:49;98379.47;;;4.85
19102;BMP280;9683;49.028;12.064;2023-01-04T05:13:16;98378.50;;;4.86
19102;BMP280;9683;49.028;12.064;2023-01-04T05:15:43;98376.50;;;4.88
19102;BMP280;9683;49.028;12.064;2023-01-04T05:18:13;98377.34;;;4.89
19102;BMP280;9683;49.028;12.064;2023-01-04T05:20:40;98369.75;;;4.86
19102;BMP280;9683;49.028;12.064;2023-01-04T05:23:09;98369.63;;;4.87
19102;BMP280;9683;49.028;12.064;2023-01-04T05:25:36;98375.72;;;4.88
19102;BMP280;9683;49.028;12.064;2023-01-04T05:28:03;98362.34;;;4.89
19102;BMP280;9683;49.028;12.064;2023-01-04T05:30:30;98358.91;;;4.89
19102;BMP280;9683;49.028;12.064;2023-01-04T05:33:15;98358.72;;;4.82
19102;BMP280;9683;49.028;12.064;2023-01-04T05:35:42;98369.03;;;4.76
19102;BMP280;9683;49.028;12.064;2023-01-04T05:38:09;98366.63;;;4.82
19102;BMP280;9683;49.028;12.064;2023-01-04T05:40:35;98372.06;;;4.89
19102;BMP280;9683;49.028;12.064;2023-01-04T05:43:02;98375.06;;;4.94
19102;BMP280;9683;49.028;12.064;2023-01-04T05:45:28;98373.94;;;4.96
19102;BMP280;9683;49.028;12.064;2023-01-04T05:47:54;98371.81;;;5.00
19102;BMP280;9683;49.028;12.064;2023-01-04T05:50:23;98369.81;;;5.02
19102;BMP280;9683;49.028;12.064;2023-01-04T05:52:50;98360.44;;;4.99
19102;BMP280;9683;49.028;12.064;2023-01-04T05:55:17;98366.03;;;4.96
19102;BMP280;9683;49.028;12.064;2023-01-04T05:57:44;98358.41;;;4.93
19102;BMP280;9683;49.028;12.064;2023-01-04T06:00:11;98364.69;;;4.92
19102;BMP280;9683;49.028;12.064;2023-01-04T06:02:39;98357.78;;;4.91
19102;BMP280;9683;49.028;12.064;2023-01-04T06:05:07;98361.72;;;4.95
19102;BMP280;9683;49.028;12.064;2023-01-04T06:07:36;98365.03;;;4.97
19102;BMP280;9683;49.028;12.064;2023-01-04T06:10:04;98354.19;;;5.00
19102;BMP280;9683;49.028;12.064;2023-01-04T06:12:31;98354.34;;;5.07
19102;BMP280;9683;49.028;12.064;2023-01-04T06:14:58;98358.66;;;5.08
19102;BMP280;9683;49.028;12.064;2023-01-04T06:17:25;98349.44;;;5.12
19102;BMP280;9683;49.028;12.064;2023-01-04T06:19:51;98346.47;;;5.15
19102;BMP280;9683;49.028;12.064;2023-01-04T06:22:18;98338.22;;;5.18
19102;BMP280;9683;49.028;12.064;2023-01-04T06:24:46;98333.78;;;5.19
19102;BMP280;9683;49.028;12.064;2023-01-04T06:27:13;98333.28;;;5.15
19102;BMP280;9683;49.028;12.064;2023-01-04T06:29:39;98323.06;;;5.12
19102;BMP280;9683;49.028;12.064;2023-01-04T06:32:06;98329.78;;;5.06
19102;BMP280;9683;49.028;12.064;2023-01-04T06:34:32;98333.25;;;5.07
19102;BMP280;9683;49.028;12.064;2023-01-04T06:36:59;98338.69;;;5.05
19102;BMP280;9683;49.028;12.064;2023-01-04T06:39:26;98331.78;;;5.04
19102;BMP280;9683;49.028;12.064;2023-01-04T06:41:54;98330.63;;;5.07
19102;BMP280;9683;49.028;12.064;2023-01-04T06:44:20;98332.94;;;5.10
19102;BMP280;9683;49.028;12.064;2023-01-04T06:46:47;98342.84;;;5.16
19102;BMP280;9683;49.028;12.064;2023-01-04T06:49:13;98340.06;;;5.18
19102;BMP280;9683;49.028;12.064;2023-01-04T06:51:40;98332.78;;;5.20
19102;BMP280;9683;49.028;12.064;2023-01-04T06:54:08;98336.63;;;5.25
19102;BMP280;9683;49.028;12.064;2023-01-04T06:56:35;98344.19;;;5.28
19102;BMP280;9683;49.028;12.064;2023-01-04T06:59:03;98350.66;;;5.34
19102;BMP280;9683;49.028;12.064;2023-01-04T07:01:30;98347.81;;;5.35
19102;BMP280;9683;49.028;12.064;2023-01-04T07:03:57;98339.44;;;5.40
19102;BMP280;9683;49.028;12.064;2023-01-04T07:06:24;98345.06;;;5.45
19102;BMP280;9683;49.028;12.064;2023-01-04T07:08:50;98335.66;;;5.42
19102;BMP280;9683;49.028;12.064;2023-01-04T07:11:17;98331.19;;;5.43
19102;BMP280;9683;49.028;12.064;2023-01-04T07:13:44;98330.03;;;5.45
19102;BMP280;9683;49.028;12.064;2023-01-04T07:16:11;98327.75;;;5.50
19102;BMP280;9683;49.028;12.064;2023-01-04T07:18:38;98323.09;;;5.44
19102;BMP280;9683;49.028;12.064;2023-01-04T07:21:05;98317.00;;;5.44
19102;BMP280;9683;49.028;12.064;2023-01-04T07:23:31;98319.34;;;5.47
19102;BMP280;9683;49.028;12.064;2023-01-04T07:26:00;98331.53;;;5.56
19102;BMP280;9683;49.028;12.064;2023-01-04T07:28:27;98319.84;;;5.59
19102;BMP280;9683;49.028;12.064;2023-01-04T07:31:12;98306.31;;;5.62
19102;BMP280;9683;49.028;12.064;2023-01-04T07:33:39;98303.50;;;5.63
19102;BMP280;9683;49.028;12.064;2023-01-04T07:36:06;98291.63;;;5.67
19102;BMP280;9683;49.028;12.064;2023-01-04T07:38:33;98301.84;;;5.70
19102;BMP280;9683;49.028;12.064;2023-01-04T07:41:00;98298.03;;;5.73
19102;BMP280;9683;49.028;12.064;2023-01-04T07:43:27;98289.97;;;5.74
19102;BMP280;9683;49.028;12.064;2023-01-04T07:45:53;98290.81;;;5.75
19102;BMP280;9683;49.028;12.064;2023-01-04T07:48:21;98294.09;;;5.77
19102;BMP280;9683;49.028;12.064;2023-01-04T07:50:51;98289.97;;;5.74
19102;BMP280;9683;49.028;12.064;2023-01-04T07:53:18;98292.75;;;5.73
19102;BMP280;9683;49.028;12.064;2023-01-04T07:55:47;98293.28;;;5.76
19102;BMP280;9683;49.028;12.064;2023-01-04T07:58:14;98289.81;;;5.76
19102;BMP280;9683;49.028;12.064;2023-01-04T08:00:40;98292.75;;;5.81
19102;BMP280;9683;49.028;12.064;2023-01-04T08:03:07;98293.28;;;5.84
19102;BMP280;9683;49.028;12.064;2023-01-04T08:05:35;98287.69;;;5.87
19102;BMP280;9683;49.028;12.064;2023-01-04T08:08:02;98286.50;;;5.90
19102;BMP280;9683;49.028;12.064;2023-01-04T08:10:28;98280.75;;;5.94
19102;BMP280;9683;49.028;12.064;2023-01-04T08:12:57;98278.25;;;6.01
19102;BMP280;9683;49.028;12.064;2023-01-04T08:15:24;98282.84;;;6.07
19102;BMP280;9683;49.028;12.064;2023-01-04T08:17:51;98284.84;;;6.13
19102;BMP280;9683;49.028;12.064;2023-01-04T08:20:17;98285.47;;;6.15
19102;BMP280;9683;49.028;12.064;2023-01-04T08:22:45;98284.97;;;6.20
19102;BMP280;9683;49.028;12.064;2023-01-04T08:25:12;98284.66;;;6.23
19102;BMP280;9683;49.028;12.064;2023-01-04T08:27:39;98279.38;;;6.23
19102;BMP280;9683;49.028;12.064;2023-01-04T08:30:07;98280.53;;;6.20
19102;BMP280;9683;49.028;12.064;2023-01-04T08:32:34;98288.94;;;6.24
19102;BMP280;9683;49.028;12.064;2023-01-04T08:35:01;98273.56;;;6.27
19102;BMP280;9683;49.028;12.064;2023-01-04T08:37:27;98268.78;;;6.31
19102;BMP280;9683;49.028;12.064;2023-01-04T08:39:57;98259.69;;;6.33
19102;BMP280;9683;49.028;12.064;2023-01-04T08:42:24;98257.19;;;6.32
19102;BMP280;9683;49.028;12.064;2023-01-04T08:44:50;98255.38;;;6.32
19102;BMP280;9683;49.028;12.064;2023-01-04T08:47:17;98243.16;;;6.31
19102;BMP280;9683;49.028;12.064;2023-01-04T08:49:43;98235.06;;;6.33
19102;BMP280;9683;49.028;12.064;2023-01-04T08:52:10;98235.53;;;6.36
19102;BMP280;9683;49.028;12.064;2023-01-04T08:54:40;98230.22;;;6.44
19102;BMP280;9683;49.028;12.064;2023-01-04T08:57:08;98230.19;;;6.53
19102;BMP280;9683;49.028;12.064;2023-01-04T08:59:34;98221.59;;;6.59
19102;BMP280;9683;49.028;12.064;2023-01-04T09:02:01;98222.06;;;6.62
19102;BMP280;9683;49.028;12.064;2023-01-04T09:04:28;98223.19;;;6.68
19102;BMP280;9683;49.028;12.064;2023-01-04T09:06:55;98226.31;;;6.71
19102;BMP280;9683;49.028;12.064;2023-01-04T09:09:22;98219.19;;;6.72
19102;BMP280;9683;49.028;12.064;2023-01-04T09:11:48;98224.50;;;6.72
19102;BMP280;9683;49.028;12.064;2023-01-04T09:14:16;98223.31;;;6.74
19102;BMP280;9683;49.028;12.064;2023-01-04T09:16:43;98209.94;;;6.76
19102;BMP280;9683;49.028;12.064;2023-01-04T09:19:10;98212.88;;;6.81
19102;BMP280;9683;49.028;12.064;2023-01-04T09:21:36;98213.19;;;6.86
19102;BMP280;9683;49.028;12.064;2023-01-04T09:24:03;98219.41;;;6.93
19102;BMP280;9683;49.028;12.064;2023-01-04T09:26:30;98215.06;;;7.00
19102;BMP280;9683;49.028;12.064;2023-01-04T09:28:56;98217.47;;;7.10
19102;BMP280;9683;49.028;12.064;2023-01-04T09:31:26;98213.13;;;7.17
19102;BMP280;9683;49.028;12.064;2023-01-04T09:33:54;98215.06;;;7.23
19102;BMP280;9683;49.028;12.064;2023-01-04T09:36:21;98217.19;;;7.27
19102;BMP280;9683;49.028;12.064;2023-01-04T09:38:48;98205.88;;;7.33
19102;BMP280;9683;49.028;12.064;2023-01-04T09:41:21;98198.06;;;7.40
19102;BMP280;9683;49.028;12.064;2023-01-04T09:43:51;98199.34;;;7.44
19102;BMP280;9683;49.028;12.064;2023-01-04T09:46:26;98189.84;;;7.50
19102;BMP280;9683;49.028;12.064;2023-01-04T09:48:59;98194.81;;;7.53
19102;BMP280;9683;49.028;12.064;2023-01-04T09:51:32;98174.25;;;7.55
19102;BMP280;9683;49.028;12.064;2023-01-04T09:54:04;98170.44;;;7.57
19102;BMP280;9683;49.028;12.064;2023-01-04T09:56:35;98179.47;;;7.63
19102;BMP280;9683;49.028;12.064;2023-01-04T09:59:06;98172.81;;;7.67
19102;BMP280;9683;49.028;12.064;2023-01-04T10:01:41;98159.66;;;7.73
19102;BMP280;9683;49.028;12.064;2023-01-04T10:04:14;98161.66;;;7.71
19102;BMP280;9683;49.028;12.064;2023-01-04T10:06:43;98158.66;;;7.74
19102;BMP280;9683;49.028;12.064;2023-01-04T10:09:12;98158.31;;;7.77
19102;BMP280;9683;49.028;12.064;2023-01-04T10:12:05;98157.56;;;7.83
19102;BMP280;9683;49.028;12.064;2023-01-04T10:14:54;98146.25;;;7.90
19102;BMP280;9683;49.028;12.064;2023-01-04T10:17:47;98135.09;;;7.94
19102;BMP280;9683;49.028;12.064;2023-01-04T10:20:42;98139.41;;;7.95
19102;BMP280;9683;49.028;12.064;2023-01-04T10:23:20;98140.03;;;7.97
19102;BMP280;9683;49.028;12.064;2023-01-04T10:25:54;98129.25;;;7.99
19102;BMP280;9683;49.028;12.064;2023-01-04T10:28:30;98127.88;;;8.03
19102;BMP280;9683;49.028;12.064;2023-01-04T10:31:04;98120.22;;;8.08
19102;BMP280;9683;49.028;12.064;2023-01-04T10:33:38;98127.22;;;8.15
19102;BMP280;9683;49.028;12.064;2023-01-04T10:36:15;98114.25;;;8.20
19102;BMP280;9683;49.028;12.064;2023-01-04T10:38:43;98108.72;;;8.22
19102;BMP280;9683;49.028;12.064;2023-01-04T10:41:16;98097.75;;;8.25
19102;BMP280;9683;49.028;12.064;2023-01-04T10:43:50;98100.72;;;8.30
19102;BMP280;9683;49.028;12.064;2023-01-04T10:46:26;98096.88;;;8.33
19102;BMP280;9683;49.028;12.064;2023-01-04T10:48:59;98086.06;;;8.34
19102;BMP280;9683;49.028;12.064;2023-01-04T10:51:34;98087.34;;;8.38
19102;BMP280;9683;49.028;12.064;2023-01-04T10:54:07;98085.31;;;8.40
19102;BMP280;9683;49.028;12.064;2023-01-04T10:56:40;98082.94;;;8.45
19102;BMP280;9683;49.028;12.064;2023-01-04T10:59:15;98078.91;;;8.49
19102;BMP280;9683;49.028;12.064;2023-01-04T11:01:47;98076.69;;;8.53
19102;BMP280;9683;49.028;12.064;2023-01-04T11:04:20;98064.69;;;8.57
19102;BMP280;9683;49.028;12.064;2023-01-04T11:06:54;98053.91;;;8.58
19102;BMP280;9683;49.028;12.064;2023-01-04T11:09:24;98068.44;;;8.62
19102;BMP280;9683;49.028;12.064;2023-01-04T11:11:54;98055.59;;;8.66
19102;BMP280;9683;49.028;12.064;2023-01-04T11:14:23;98058.88;;;8.68
19102;BMP280;9683;49.028;12.064;2023-01-04T11:16:51;98060.97;;;8.72
19102;BMP280;9683;49.028;12.064;2023-01-04T11:19:23;98062.03;;;8.78
19102;BMP280;9683;49.028;12.064;2023-01-04T11:21:52;98050.22;;;8.81
19102;BMP280;9683;49.028;12.064;2023-01-04T11:24:22;98056.34;;;8.81
19102;BMP280;9683;49.028;12.064;2023-01-04T11:26:50;98050.47;;;8.86
19102;BMP280;9683;49.028;12.064;2023-01-04T11:29:27;98045.97;;;8.86
19102;BMP280;9683;49.028;12.064;2023-01-04T11:31:58;98043.56;;;8.91
19102;BMP280;9683;49.028;12.064;2023-01-04T11:34:49;98039.13;;;8.98
19102;BMP280;9683;49.028;12.064;2023-01-04T11:37:30;98033.25;;;9.03
19102;BMP280;9683;49.028;12.064;2023-01-04T11:40:16;98042.91;;;9.10
19102;BMP280;9683;49.028;12.064;2023-01-04T11:42:44;98035.78;;;9.17
19102;BMP280;9683;49.028;12.064;2023-01-04T11:45:17;98026.88;;;9.25
19102;BMP280;9683;49.028;12.064;2023-01-04T11:47:50;98022.16;;;9.27
19102;BMP280;9683;49.028;12.064;2023-01-04T11:50:39;98009.97;;;9.33
19102;BMP280;9683;49.028;12.064;2023-01-04T11:53:22;98002.84;;;9.40
19102;BMP280;9683;49.028;12.064;2023-01-04T11:55:49;98002.03;;;9.39
19102;BMP280;9683;49.028;12.064;2023-01-04T11:58:17;98000.81;;;9.42
19102;BMP280;9683;49.028;12.064;2023-01-04T12:00:55;97993.09;;;9.47
19102;BMP280;9683;49.028;12.064;2023-01-04T12:03:26;97995.75;;;9.47
19102;BMP280;9683;49.028;12.064;2023-01-04T12:05:55;97996.16;;;9.50
19102;BMP280;9683;49.028;12.064;2023-01-04T12:08:28;97990.88;;;9.57
19102;BMP280;9683;49.028;12.064;2023-01-04T12:10:56;97992.34;;;9.59
19102;BMP280;9683;49.028;12.064;2023-01-04T12:13:23;97998.91;;;9.63
19102;BMP280;9683;49.028;12.064;2023-01-04T12:15:57;97991.13;;;9.68
19102;BMP280;9683;49.028;12.064;2023-01-04T12:18:29;97982.78;;;9.72
19102;BMP280;9683;49.028;12.064;2023-01-04T12:20:57;97977.25;;;9.73
19102;BMP280;9683;49.028;12.064;2023-01-04T12:23:26;97969.09;;;9.75
19102;BMP280;9683;49.028;12.064;2023-01-04T12:25:53;97971.97;;;9.80
19102;BMP280;9683;49.028;12.064;2023-01-04T12:28:28;97966.44;;;9.81
19102;BMP280;9683;49.028;12.064;2023-01-04T12:30:55;97951.53;;;9.80
19102;BMP280;9683;49.028;12.064;2023-01-04T12:33:41;97955.63;;;9.83
19102;BMP280;9683;49.028;12.064;2023-01-04T12:36:11;97943.38;;;9.88
19102;BMP280;9683;49.028;12.064;2023-01-04T12:39:01;97939.06;;;9.94
19102;BMP280;9683;49.028;12.064;2023-01-04T12:45:17;97919.47;;;10.01
19102;BMP280;9683;49.028;12.064;2023-01-04T12:47:53;97927.03;;;9.98
19102;BMP280;9683;49.028;12.064;2023-01-04T12:53:59;97918.25;;;9.97
19102;BMP280;9683;49.028;12.064;2023-01-04T12:59:33;97922.13;;;10.01
19102;BMP280;9683;49.028;12.064;2023-01-04T13:02:18;97923.34;;;9.99
19102;BMP280;9683;49.028;12.064;2023-01-04T13:04:45;97914.97;;;9.95
19102;BMP280;9683;49.028;12.064;2023-01-04T13:07:17;97912.09;;;9.97
19102;BMP280;9683;49.028;12.064;2023-01-04T13:09:52;97909.84;;;9.94
19102;BMP280;9683;49.028;12.064;2023-01-04T13:12:45;97914.97;;;9.95
19102;BMP280;9683;49.028;12.064;2023-01-04T13:15:21;97904.34;;;9.89
19102;BMP280;9683;49.028;12.064;2023-01-04T13:17:49;97908.81;;;9.88
19102;BMP280;9683;49.028;12.064;2023-01-04T13:20:18;97920.47;;;9.94
19102;BMP280;9683;49.028;12.064;2023-01-04T13:22:49;97912.50;;;9.94
19102;BMP280;9683;49.028;12.064;2023-01-04T13:25:19;97912.31;;;9.95
19102;BMP280;9683;49.028;12.064;2023-01-04T13:28:00;97896.56;;;10.00
19102;BMP280;9683;49.028;12.064;2023-01-04T13:30:29;97895.34;;;10.03
19102;BMP280;9683;49.028;12.064;2023-01-04T13:32:55;97891.66;;;10.04
19102;BMP280;9683;49.028;12.064;2023-01-04T13:35:22;97894.94;;;10.12
19102;BMP280;9683;49.028;12.064;2023-01-04T13:37:49;97890.69;;;10.18
19102;BMP280;9683;49.028;12.064;2023-01-04T13:40:22;97884.34;;;10.19
19102;BMP280;9683;49.028;12.064;2023-01-04T13:42:57;97879.22;;;10.24
19102;BMP280;9683;49.028;12.064;2023-01-04T13:45:35;97875.94;;;10.29
19102;BMP280;9683;49.028;12.064;2023-01-04T13:48:10;97864.06;;;10.31
19102;BMP280;9683;49.028;12.064;2023-01-04T13:50:39;97860.19;;;10.34
19102;BMP280;9683;49.028;12.064;2023-01-04T13:53:18;97856.31;;;10.36
19102;BMP280;9683;49.028;12.064;2023-01-04T13:55:50;97861.22;;;10.39
19102;BMP280;9683;49.028;12.064;2023-01-04T13:58:19;97860.59;;;10.44
19102;BMP280;9683;49.028;12.064;2023-01-04T14:00:49;97858.75;;;10.51
19102;BMP280;9683;49.028;12.064;2023-01-04T14:03:24;97848.31;;;10.56
19102;BMP280;9683;49.028;12.064;2023-01-04T14:05:53;97843.78;;;10.56
19102;BMP280;9683;49.028;12.064;2023-01-04T14:08:27;97852.19;;;10.60
19102;BMP280;9683;49.028;12.064;2023-01-04T14:10:55;97839.69;;;10.61
19102;BMP280;9683;49.028;12.064;2023-01-04T14:13:22;97837.03;;;10.54
19102;BMP280;9683;49.028;12.064;2023-01-04T14:16:03;97837.47;;;10.51
19102;BMP280;9683;49.028;12.064;2023-01-04T14:18:30;97826.81;;;10.51
19102;BMP280;9683;49.028;12.064;2023-01-04T14:20:56;97824.38;;;10.49
19102;BMP280;9683;49.028;12.064;2023-01-04T14:23:31;97831.91;;;10.52
19102;BMP280;9683;49.028;12.064;2023-01-04T14:25:59;97828.25;;;10.53
19102;BMP280;9683;49.028;12.064;2023-01-04T14:28:39;97823.53;;;10.55
19102;BMP280;9683;49.028;12.064;2023-01-04T14:31:18;97813.91;;;10.54
19102;BMP280;9683;49.028;12.064;2023-01-04T14:33:47;97815.56;;;10.55
19102;BMP280;9683;49.028;12.064;2023-01-04T14:36:18;97818.03;;;10.50
19102;BMP280;9683;49.028;12.064;2023-01-04T14:38:52;97826.59;;;10.52
19102;BMP280;9683;49.028;12.064;2023-01-04T14:41:23;97812.91;;;10.49
19102;BMP280;9683;49.028;12.064;2023-01-04T14:43:52;97802.50;;;10.47
19102;BMP280;9683;49.028;12.064;2023-01-04T14:46:29;97797.97;;;10.48
19102;BMP280;9683;49.028;12.064;2023-01-04T14:48:56;97804.53;;;10.45
19102;BMP280;9683;49.028;12.064;2023-01-04T14:51:30;97799.00;;;10.47
19102;BMP280;9683;49.028;12.064;2023-01-04T14:53:57;97805.97;;;10.41